Portada
METAR-TAF:

METAR-TAF

Aeroports :

Port Hawkesbury, Nova Escòcia, Canadà

latitud: 45-40N, longitud: 061-23W, altitud: 114 m

Observació

L'informe es va fer fa 53 minuts, a les 20:00 UTC
Vent 7 kt del Oest/Sud-Oest, variant entre Sud/Sud-Oest i Oest
Temperatura 21°C
Humitat 73%
Pressió 1012 hPa
Visibilitat: 14.5 km
Núvols disperses a una alçada de 2500 ft
Núvols disperses a una alçada de 3200 ft

METAR: CYPD 152000Z AUTO 24007KT 210V280 9SM SCT025 SCT032 21/16 A2989 RMK SLP125 DENSITY ALT 1100FT

Hora: 17:53 (20:53 UTC)


TAF: manca

Observacions i pronòstics meteorològics de més de 4000 aeroports (METAR i TAF).

Les estacions disponibles són els punts grocs i vermells al mapa.

Posi el ratolí al punt desitjat per veure el nom de l'estació.

Feu clic per veure les observacions i els pronòstics meteorològics.

Per canviar el mapa: feu clic els botons verds amb una creu de color negre per apropar; al botó verd amb un guió per allunyar la imatge; o en les fletxes verdes per a mapes adjacents.


METAR-TAF: